createdAt,value
2023-02-02T00:01:31.296Z,100158.31
2023-02-02T00:03:59.409Z,100162.63
2023-02-02T00:06:28.686Z,100147.59
2023-02-02T00:08:58.117Z,100165.84
2023-02-02T00:11:26.187Z,100149.59
2023-02-02T00:13:53.901Z,100142.81
2023-02-02T00:16:29.968Z,100155.56
2023-02-02T00:18:59.689Z,100148.69
2023-02-02T00:21:27.204Z,100132.94
2023-02-02T00:23:54.714Z,100140.72
2023-02-02T00:26:22.289Z,100110.28
2023-02-02T00:28:49.406Z,100119.44
2023-02-02T00:31:16.594Z,100141.25
2023-02-02T00:33:48.199Z,100147.56
2023-02-02T00:36:15.798Z,100153.88
2023-02-02T00:38:43.058Z,100122.25
2023-02-02T00:41:23.548Z,100138.28
2023-02-02T00:44:11.004Z,100101.09
2023-02-02T00:46:45.325Z,100137.84
2023-02-02T00:49:14.574Z,100150.84
2023-02-02T00:51:42.320Z,100131.47
2023-02-02T00:54:12.715Z,100079.38
2023-02-02T00:56:43.969Z,100101.78
2023-02-02T00:59:12.438Z,100126.41
2023-02-02T01:01:40.111Z,100135.72
2023-02-02T01:04:08.457Z,100172.34
2023-02-02T01:06:35.738Z,100148.03
2023-02-02T01:09:07.174Z,100152.78
2023-02-02T01:11:35.573Z,100173.34
2023-02-02T01:14:05.241Z,100126.06
2023-02-02T01:16:35.273Z,100082.50
2023-02-02T01:19:02.876Z,100070.53
2023-02-02T01:21:30.487Z,100144.53
2023-02-02T01:24:03.032Z,100168.34
2023-02-02T01:26:34.981Z,100175.59
2023-02-02T01:29:02.230Z,100177.00
2023-02-02T01:31:29.365Z,100163.97
2023-02-02T01:33:56.629Z,100155.41
2023-02-02T01:36:24.802Z,100170.56
2023-02-02T01:38:52.203Z,100159.97
2023-02-02T01:41:22.606Z,100179.91
2023-02-02T01:43:53.374Z,100179.38
2023-02-02T01:46:31.924Z,100175.47
2023-02-02T01:49:12.752Z,100154.13
2023-02-02T01:51:50.493Z,100168.59
2023-02-02T01:54:24.249Z,100169.19
2023-02-02T01:56:57.681Z,100165.91
2023-02-02T01:59:27.826Z,100172.81
2023-02-02T02:01:55.812Z,100153.47
2023-02-02T02:04:24.968Z,100153.44
2023-02-02T02:06:53.805Z,100161.50
2023-02-02T02:09:21.114Z,100166.19
2023-02-02T02:11:48.874Z,100181.13
2023-02-02T02:14:35.320Z,100184.97
2023-02-02T02:17:35.357Z,100192.69
2023-02-02T02:20:52.226Z,100181.94
2023-02-02T02:24:10.814Z,100195.25
2023-02-02T02:26:59.390Z,100163.94
2023-02-02T02:29:54.680Z,100194.94
2023-02-02T02:32:29.752Z,100198.25
2023-02-02T02:35:25.930Z,100204.91
2023-02-02T02:38:20.570Z,100203.53
2023-02-02T02:40:54.113Z,100183.81
2023-02-02T02:43:29.880Z,100194.94
2023-02-02T02:45:57.639Z,100181.09
2023-02-02T02:48:25.482Z,100176.97
2023-02-02T02:50:52.588Z,100205.19
2023-02-02T02:53:22.348Z,100190.22
2023-02-02T02:56:05.395Z,100220.94
2023-02-02T02:59:11.005Z,100215.91
2023-02-02T03:01:51.752Z,100211.41
2023-02-02T03:04:52.244Z,100190.75
2023-02-02T03:07:58.412Z,100205.41
2023-02-02T03:10:29.706Z,100205.50
2023-02-02T03:12:58.390Z,100193.84
2023-02-02T03:15:25.787Z,100191.09
2023-02-02T03:17:54.139Z,100212.94
2023-02-02T03:20:21.644Z,100235.34
2023-02-02T03:22:49.111Z,100204.66
2023-02-02T03:25:16.814Z,100223.50
2023-02-02T03:27:44.431Z,100243.66
2023-02-02T03:30:13.956Z,100237.56
2023-02-02T03:32:41.820Z,100249.75
2023-02-02T03:35:09.716Z,100243.69
2023-02-02T03:37:36.877Z,100237.88
2023-02-02T03:40:05.035Z,100262.44
2023-02-02T03:42:32.191Z,100255.72
2023-02-02T03:44:59.392Z,100234.22
2023-02-02T03:47:30.353Z,100242.53
2023-02-02T03:49:57.450Z,100253.06
2023-02-02T03:52:25.666Z,100273.31
2023-02-02T03:54:52.795Z,100276.59
2023-02-02T03:57:20.473Z,100290.06
2023-02-02T03:59:48.519Z,100274.53
2023-02-02T04:02:15.731Z,100284.19
2023-02-02T04:04:42.949Z,100280.47
2023-02-02T04:07:10.057Z,100299.13
2023-02-02T04:09:37.377Z,100306.22
2023-02-02T04:12:04.988Z,100296.75
2023-02-02T04:14:33.425Z,100306.06
2023-02-02T04:17:00.576Z,100293.97
2023-02-02T04:19:27.782Z,100306.94
2023-02-02T04:21:55.086Z,100291.19
2023-02-02T04:24:22.379Z,100297.91
2023-02-02T04:26:49.881Z,100282.94
2023-02-02T04:29:17.071Z,100272.22
2023-02-02T04:31:44.304Z,100282.16
2023-02-02T04:34:11.423Z,100292.06
2023-02-02T04:36:40.829Z,100297.25
2023-02-02T04:39:12.089Z,100312.09
2023-02-02T04:41:39.729Z,100287.31
2023-02-02T04:44:14.533Z,100318.38
2023-02-02T04:46:42.947Z,100317.97
2023-02-02T04:49:11.610Z,100321.03
2023-02-02T04:51:40.609Z,100300.53
2023-02-02T04:54:10.727Z,100294.16
2023-02-02T04:56:37.966Z,100314.25
2023-02-02T04:59:05.545Z,100282.63
2023-02-02T05:01:32.990Z,100331.41
2023-02-02T05:04:00.230Z,100314.84
2023-02-02T05:06:28.865Z,100329.84
2023-02-02T05:09:00.316Z,100341.41
2023-02-02T05:11:29.807Z,100332.03
2023-02-02T05:13:58.262Z,100320.19
2023-02-02T05:16:28.480Z,100311.66
2023-02-02T05:18:59.556Z,100340.59
2023-02-02T05:21:26.955Z,100334.47
2023-02-02T05:23:54.773Z,100348.34
2023-02-02T05:26:24.997Z,100327.53
2023-02-02T05:28:53.163Z,100335.00
2023-02-02T05:31:20.736Z,100340.00
2023-02-02T05:33:48.286Z,100338.91
2023-02-02T05:36:16.359Z,100336.16
2023-02-02T05:38:44.002Z,100340.84
2023-02-02T05:41:11.233Z,100322.59
2023-02-02T05:43:38.309Z,100329.50
2023-02-02T05:46:05.601Z,100325.59
2023-02-02T05:48:32.859Z,100344.97
2023-02-02T05:51:31.456Z,100354.16
2023-02-02T05:54:00.881Z,100359.94
2023-02-02T05:56:28.236Z,100335.78
2023-02-02T05:58:55.397Z,100358.72
2023-02-02T06:01:22.763Z,100349.34
2023-02-02T06:03:49.927Z,100328.59
2023-02-02T06:06:17.347Z,100364.72
2023-02-02T06:08:44.559Z,100371.09
2023-02-02T06:11:13.587Z,100369.19
2023-02-02T06:13:40.716Z,100353.34
2023-02-02T06:16:08.426Z,100373.00
2023-02-02T06:18:36.822Z,100384.38
2023-02-02T06:21:06.881Z,100366.66
2023-02-02T06:23:34.626Z,100380.22
2023-02-02T06:26:03.673Z,100384.91
2023-02-02T06:28:31.871Z,100383.53
2023-02-02T06:31:05.342Z,100394.41
2023-02-02T06:33:33.087Z,100404.06
2023-02-02T06:36:05.443Z,100408.22
2023-02-02T06:38:36.012Z,100378.84
2023-02-02T06:41:03.437Z,100378.53
2023-02-02T06:43:30.856Z,100400.34
2023-02-02T06:45:58.800Z,100395.53
2023-02-02T06:48:27.035Z,100400.38
2023-02-02T06:50:54.385Z,100366.06
2023-02-02T06:53:26.084Z,100379.47
2023-02-02T06:55:58.010Z,100387.44
2023-02-02T06:58:25.074Z,100407.88
2023-02-02T07:00:52.697Z,100402.88
2023-02-02T07:03:23.599Z,100394.34
2023-02-02T07:05:50.755Z,100383.44
2023-02-02T07:08:18.542Z,100395.47
2023-02-02T07:11:12.783Z,100383.50
2023-02-02T07:13:32.775Z,100387.56
2023-02-02T07:16:00.808Z,100399.19
2023-02-02T07:18:27.923Z,100407.41
2023-02-02T07:20:55.035Z,100399.63
2023-02-02T07:23:22.248Z,100386.19
2023-02-02T07:25:49.413Z,100394.09
2023-02-02T07:28:16.667Z,100406.16
2023-02-02T07:30:44.043Z,100397.22
2023-02-02T07:33:11.323Z,100401.50
2023-02-02T07:35:38.539Z,100417.44
2023-02-02T07:38:06.262Z,100401.56
2023-02-02T07:40:33.314Z,100414.50
2023-02-02T07:43:02.568Z,100407.13
2023-02-02T07:45:29.980Z,100404.44
2023-02-02T07:47:58.056Z,100405.47
2023-02-02T07:50:28.155Z,100411.97
2023-02-02T07:52:56.047Z,100413.16
2023-02-02T07:55:23.382Z,100414.25
2023-02-02T07:57:52.425Z,100395.47
2023-02-02T08:00:20.957Z,100429.75
2023-02-02T08:02:51.391Z,100430.19
2023-02-02T08:05:18.571Z,100422.69
2023-02-02T08:07:46.316Z,100428.53
2023-02-02T08:10:13.514Z,100420.56
2023-02-02T08:12:40.594Z,100424.56
2023-02-02T08:15:08.339Z,100428.06
2023-02-02T08:17:35.534Z,100439.44
2023-02-02T08:20:02.643Z,100437.50
2023-02-02T08:22:31.442Z,100430.97
2023-02-02T08:24:58.856Z,100423.94
2023-02-02T08:27:26.222Z,100420.06
2023-02-02T08:29:53.244Z,100439.00
2023-02-02T08:32:20.323Z,100427.22
2023-02-02T08:34:52.539Z,100403.91
2023-02-02T08:37:20.146Z,100411.63
2023-02-02T08:40:08.045Z,100426.31
2023-02-02T08:42:35.161Z,100417.47
2023-02-02T08:46:02.797Z,100420.69
2023-02-02T08:48:10.411Z,100427.47
2023-02-02T08:50:40.294Z,100423.31
2023-02-02T08:53:07.623Z,100436.94
2023-02-02T08:55:34.814Z,100426.88
2023-02-02T08:58:01.968Z,100412.03
2023-02-02T09:00:29.055Z,100429.91
2023-02-02T09:02:56.337Z,100427.69
2023-02-02T09:05:24.190Z,100424.78
2023-02-02T09:07:51.896Z,100430.44
2023-02-02T09:10:19.719Z,100409.44
2023-02-02T09:12:46.858Z,100422.97
2023-02-02T09:15:14.345Z,100422.94
2023-02-02T09:17:41.504Z,100393.50
2023-02-02T09:20:09.525Z,100405.69
2023-02-02T09:22:36.907Z,100398.38
2023-02-02T09:25:04.135Z,100418.13
2023-02-02T09:27:31.623Z,100396.97
2023-02-02T09:29:58.681Z,100398.84
2023-02-02T09:32:25.833Z,100416.63
2023-02-02T09:34:53.127Z,100385.69
2023-02-02T09:37:20.314Z,100394.66
2023-02-02T09:39:50.042Z,100414.13
2023-02-02T09:42:57.121Z,100414.47
2023-02-02T09:45:52.142Z,100411.41
2023-02-02T09:48:42.927Z,100411.34
2023-02-02T09:51:15.441Z,100367.44
2023-02-02T09:54:23.781Z,100394.56
2023-02-02T09:56:57.393Z,100373.69
2023-02-02T09:59:29.483Z,100377.56
2023-02-02T10:02:03.222Z,100382.63
2023-02-02T10:04:36.569Z,100373.28
2023-02-02T10:07:13.030Z,100350.72
2023-02-02T10:09:48.225Z,100379.69
2023-02-02T10:12:30.515Z,100388.59
2023-02-02T10:15:13.360Z,100385.00
2023-02-02T10:17:47.304Z,100378.56
2023-02-02T10:20:24.627Z,100377.50
2023-02-02T10:22:54.700Z,100361.47
2023-02-02T10:25:26.495Z,100350.72
2023-02-02T10:28:19.839Z,100368.78
2023-02-02T10:31:00.144Z,100348.97
2023-02-02T10:33:33.352Z,100355.06
2023-02-02T10:36:26.698Z,100354.16
2023-02-02T10:39:13.183Z,100342.44
2023-02-02T10:42:04.625Z,100356.84
2023-02-02T10:44:48.927Z,100361.03
2023-02-02T10:47:30.649Z,100331.84
2023-02-02T10:50:20.399Z,100368.00
2023-02-02T10:52:53.844Z,100360.59
2023-02-02T10:55:36.980Z,100371.50
2023-02-02T10:58:28.406Z,100380.09
2023-02-02T11:00:58.938Z,100386.75
2023-02-02T11:03:30.066Z,100383.72
2023-02-02T11:06:18.975Z,100380.44
2023-02-02T11:08:56.879Z,100386.50
2023-02-02T11:11:31.033Z,100388.13
2023-02-02T11:14:09.722Z,100393.34
2023-02-02T11:16:44.246Z,100383.06
2023-02-02T11:19:18.447Z,100399.28
2023-02-02T11:21:53.459Z,100383.75
2023-02-02T11:24:28.126Z,100407.91
2023-02-02T11:27:00.649Z,100400.91
2023-02-02T11:29:40.045Z,100403.66
2023-02-02T11:32:25.717Z,100409.22
2023-02-02T11:35:02.771Z,100403.09
2023-02-02T11:37:34.816Z,100375.91
2023-02-02T11:40:24.905Z,100406.06
2023-02-02T11:43:01.165Z,100407.44
2023-02-02T11:45:44.991Z,100412.66
2023-02-02T11:48:21.562Z,100411.59
2023-02-02T11:50:52.558Z,100416.38
2023-02-02T11:53:33.137Z,100426.72
2023-02-02T11:56:09.814Z,100425.03
2023-02-02T11:58:55.851Z,100436.47
2023-02-02T12:01:26.883Z,100435.09
2023-02-02T12:03:58.316Z,100440.66
2023-02-02T12:06:41.171Z,100451.50
2023-02-02T12:09:19.936Z,100451.78
2023-02-02T12:12:06.738Z,100424.88
2023-02-02T12:15:11.463Z,100467.28
2023-02-02T12:17:45.406Z,100439.31
2023-02-02T12:20:40.305Z,100458.16
2023-02-02T12:23:25.511Z,100457.88
2023-02-02T12:25:55.559Z,100446.50
2023-02-02T12:28:40.766Z,100455.66
2023-02-02T12:31:29.600Z,100454.56
2023-02-02T12:34:17.469Z,100455.38
2023-02-02T12:37:31.289Z,100438.69
2023-02-02T12:40:26.899Z,100419.28
2023-02-02T12:43:28.645Z,100461.13
2023-02-02T12:46:23.861Z,100455.03
2023-02-02T12:49:06.437Z,100451.97
2023-02-02T12:51:37.206Z,100459.38
2023-02-02T12:54:32.635Z,100462.44
2023-02-02T12:57:39.074Z,100461.28
2023-02-02T13:00:25.051Z,100454.84
2023-02-02T13:03:18.174Z,100471.66
2023-02-02T13:05:46.172Z,100461.94
2023-02-02T13:08:20.337Z,100454.66
2023-02-02T13:10:54.476Z,100461.00
2023-02-02T13:13:33.824Z,100455.91
2023-02-02T13:16:07.342Z,100462.31
2023-02-02T13:18:46.725Z,100443.50
2023-02-02T13:21:23.558Z,100455.78
2023-02-02T13:23:53.756Z,100475.00
2023-02-02T13:26:28.387Z,100449.84
2023-02-02T13:29:05.434Z,100454.53
2023-02-02T13:31:48.230Z,100477.28
2023-02-02T13:34:39.087Z,100470.06
2023-02-02T13:37:52.367Z,100480.63
2023-02-02T13:40:46.855Z,100462.56
2023-02-02T13:43:40.528Z,100483.56
2023-02-02T13:46:26.220Z,100481.34
2023-02-02T13:49:13.362Z,100486.94
2023-02-02T13:52:18.803Z,100487.81
2023-02-02T13:55:27.951Z,100488.31
2023-02-02T13:58:29.657Z,100481.94
2023-02-02T14:01:08.183Z,100446.91
2023-02-02T14:03:44.056Z,100477.47
2023-02-02T14:06:21.161Z,100432.63
2023-02-02T14:08:56.060Z,100476.09
2023-02-02T14:11:36.836Z,100473.88
2023-02-02T14:14:35.981Z,100485.38
2023-02-02T14:17:22.247Z,100488.72
2023-02-02T14:20:01.558Z,100462.41
2023-02-02T14:22:52.866Z,100450.91
2023-02-02T14:25:41.675Z,100491.94
2023-02-02T14:28:33.076Z,100484.88
2023-02-02T14:31:29.471Z,100498.75
2023-02-02T14:34:34.489Z,100494.50
2023-02-02T14:37:12.145Z,100494.97
2023-02-02T14:39:52.234Z,100502.13
2023-02-02T14:42:59.756Z,100505.13
2023-02-02T14:45:30.577Z,100494.78
2023-02-02T14:48:08.751Z,100506.78
2023-02-02T14:51:01.281Z,100510.09
2023-02-02T14:53:39.204Z,100514.97
2023-02-02T14:56:13.393Z,100472.84
2023-02-02T14:58:53.367Z,100499.28
2023-02-02T15:01:31.668Z,100502.25
2023-02-02T15:04:20.947Z,100512.06
2023-02-02T15:06:56.940Z,100472.63
2023-02-02T15:09:26.599Z,100521.00
2023-02-02T15:12:03.259Z,100520.31
2023-02-02T15:14:36.781Z,100520.41
2023-02-02T15:17:32.800Z,100518.47
2023-02-02T15:20:17.189Z,100528.28
2023-02-02T15:22:54.846Z,100527.31
2023-02-02T15:25:31.887Z,100519.09
2023-02-02T15:28:32.214Z,100530.91
2023-02-02T15:31:15.345Z,100533.63
2023-02-02T15:33:45.113Z,100541.66
2023-02-02T15:36:29.020Z,100533.66
2023-02-02T15:39:01.921Z,100513.44
2023-02-02T15:41:34.268Z,100504.03
2023-02-02T15:44:02.057Z,100526.09
2023-02-02T15:46:35.992Z,100513.31
2023-02-02T15:49:34.462Z,100538.84
2023-02-02T15:52:22.013Z,100540.63
2023-02-02T15:54:53.925Z,100545.19
2023-02-02T15:57:33.081Z,100529.66
2023-02-02T16:00:16.708Z,100538.25
2023-02-02T16:02:45.828Z,100544.66
2023-02-02T16:05:40.484Z,100563.50
2023-02-02T16:08:18.075Z,100554.63
2023-02-02T16:10:48.498Z,100542.75
2023-02-02T16:13:26.128Z,100566.31
2023-02-02T16:16:08.389Z,100544.09
2023-02-02T16:18:38.036Z,100551.91
2023-02-02T16:21:16.263Z,100562.72
2023-02-02T16:23:47.328Z,100572.13
2023-02-02T16:26:19.431Z,100559.66
2023-02-02T16:28:48.884Z,100569.63
2023-02-02T16:31:16.836Z,100565.19
2023-02-02T16:33:49.645Z,100587.97
2023-02-02T16:36:24.381Z,100578.81
2023-02-02T16:38:53.392Z,100577.97
2023-02-02T16:41:33.806Z,100587.69
2023-02-02T16:44:37.745Z,100596.56
2023-02-02T16:47:42.822Z,100610.69
2023-02-02T16:50:10.075Z,100605.69
2023-02-02T16:52:57.455Z,100595.69
2023-02-02T16:55:31.527Z,100577.59
2023-02-02T16:58:20.499Z,100602.88
2023-02-02T17:01:13.520Z,100580.56
2023-02-02T17:03:55.274Z,100591.91
2023-02-02T17:06:46.193Z,100592.38
2023-02-02T17:09:34.759Z,100590.63
2023-02-02T17:12:32.837Z,100632.34
2023-02-02T17:15:06.085Z,100626.78
2023-02-02T17:17:33.433Z,100617.91
2023-02-02T17:20:03.804Z,100617.59
2023-02-02T17:22:42.001Z,100615.66
2023-02-02T17:25:27.589Z,100628.41
2023-02-02T17:27:57.385Z,100641.56
2023-02-02T17:30:27.858Z,100629.88
2023-02-02T17:33:06.413Z,100620.91
2023-02-02T17:35:51.577Z,100620.56
2023-02-02T17:38:21.669Z,100634.22
2023-02-02T17:40:50.621Z,100628.75
2023-02-02T17:43:17.759Z,100644.19
2023-02-02T17:45:45.107Z,100657.19
2023-02-02T17:48:17.569Z,100652.16
2023-02-02T17:50:48.433Z,100669.31
2023-02-02T17:53:26.384Z,100666.56
2023-02-02T17:55:53.543Z,100657.16
2023-02-02T17:58:24.301Z,100630.41
2023-02-02T18:00:57.795Z,100658.41
2023-02-02T18:03:28.537Z,100666.09
2023-02-02T18:05:57.767Z,100661.59
2023-02-02T18:08:24.895Z,100666.78
2023-02-02T18:10:52.214Z,100659.53
2023-02-02T18:13:21.945Z,100665.84
2023-02-02T18:15:50.979Z,100679.00
2023-02-02T18:18:18.643Z,100668.53
2023-02-02T18:20:49.096Z,100681.81
2023-02-02T18:23:17.343Z,100666.69
2023-02-02T18:25:49.831Z,100645.63
2023-02-02T18:28:21.429Z,100669.75
2023-02-02T18:31:12.800Z,100689.34
2023-02-02T18:33:41.827Z,100683.38
2023-02-02T18:36:14.969Z,100677.91
2023-02-02T18:38:47.317Z,100672.56
2023-02-02T18:41:36.525Z,100634.97
2023-02-02T18:44:07.286Z,100628.72
2023-02-02T18:46:34.499Z,100644.53
2023-02-02T18:49:10.479Z,100642.03
2023-02-02T18:51:37.822Z,100667.06
2023-02-02T18:54:05.412Z,100655.13
2023-02-02T18:56:32.808Z,100665.72
2023-02-02T18:59:06.195Z,100652.34
2023-02-02T19:01:35.998Z,100684.09
2023-02-02T19:04:09.465Z,100679.25
2023-02-02T19:06:55.381Z,100660.34
2023-02-02T19:09:23.073Z,100669.47
2023-02-02T19:11:54.275Z,100670.13
2023-02-02T19:14:31.864Z,100687.16
2023-02-02T19:17:20.458Z,100682.03
2023-02-02T19:19:48.666Z,100650.88
2023-02-02T19:22:19.323Z,100675.22
2023-02-02T19:24:47.386Z,100673.59
2023-02-02T19:27:26.439Z,100647.66
2023-02-02T19:29:59.423Z,100677.97
2023-02-02T19:32:31.499Z,100674.66
2023-02-02T19:35:05.037Z,100668.03
2023-02-02T19:37:33.484Z,100678.56
2023-02-02T19:40:09.694Z,100672.44
2023-02-02T19:42:45.795Z,100670.97
2023-02-02T19:45:28.962Z,100648.13
2023-02-02T19:47:58.126Z,100634.63
2023-02-02T19:50:28.475Z,100675.41
2023-02-02T19:52:56.699Z,100652.56
2023-02-02T19:55:37.144Z,100664.78
2023-02-02T19:58:17.504Z,100661.78
2023-02-02T20:00:47.245Z,100660.31
2023-02-02T20:03:24.439Z,100649.13
2023-02-02T20:05:52.967Z,100666.78
2023-02-02T20:08:40.090Z,100659.03
2023-02-02T20:11:42.717Z,100655.94
2023-02-02T20:14:19.776Z,100653.56
2023-02-02T20:16:51.479Z,100661.63
2023-02-02T20:19:24.628Z,100661.88
2023-02-02T20:21:53.389Z,100650.34
2023-02-02T20:24:42.832Z,100672.00
2023-02-02T20:27:23.099Z,100648.63
2023-02-02T20:29:54.077Z,100667.84
2023-02-02T20:32:23.458Z,100680.56
2023-02-02T20:34:52.632Z,100682.66
2023-02-02T20:37:29.251Z,100674.97
2023-02-02T20:39:59.149Z,100694.88
2023-02-02T20:42:26.430Z,100701.72
2023-02-02T20:44:54.107Z,100692.09
2023-02-02T20:47:21.477Z,100691.66
2023-02-02T20:49:48.808Z,100701.94
2023-02-02T20:52:23.670Z,100698.50
2023-02-02T20:54:52.008Z,100716.09
2023-02-02T20:57:19.471Z,100705.66
2023-02-02T20:59:46.976Z,100721.50
2023-02-02T21:02:19.736Z,100700.38
2023-02-02T21:04:48.214Z,100705.91
2023-02-02T21:07:17.751Z,100729.28
2023-02-02T21:09:45.541Z,100706.00
2023-02-02T21:12:13.174Z,100696.19
2023-02-02T21:14:41.075Z,100717.59
2023-02-02T21:17:15.331Z,100691.25
2023-02-02T21:19:44.402Z,100704.28
2023-02-02T21:22:12.678Z,100690.44
2023-02-02T21:24:40.485Z,100717.66
2023-02-02T21:27:08.027Z,100714.72
2023-02-02T21:29:35.254Z,100703.38
2023-02-02T21:32:03.815Z,100704.22
2023-02-02T21:34:32.212Z,100729.44
2023-02-02T21:36:59.853Z,100719.69
2023-02-02T21:39:34.299Z,100734.22
2023-02-02T21:42:13.215Z,100739.59
2023-02-02T21:44:54.357Z,100722.19
2023-02-02T21:47:51.361Z,100747.91
2023-02-02T21:50:24.457Z,100751.00
2023-02-02T21:52:53.919Z,100746.59
2023-02-02T21:55:38.106Z,100743.91
2023-02-02T21:58:34.571Z,100749.44
2023-02-02T22:01:21.202Z,100733.63
2023-02-02T22:03:50.111Z,100754.34
2023-02-02T22:06:46.437Z,100752.69
2023-02-02T22:09:13.675Z,100755.84
2023-02-02T22:11:50.317Z,100733.91
2023-02-02T22:14:21.778Z,100756.66
2023-02-02T22:16:59.194Z,100769.34
2023-02-02T22:19:34.223Z,100765.50
2023-02-02T22:22:10.591Z,100767.19
2023-02-02T22:24:37.861Z,100761.44
2023-02-02T22:27:17.501Z,100757.69
2023-02-02T22:29:45.068Z,100745.50
2023-02-02T22:32:12.159Z,100748.44
2023-02-02T22:34:39.799Z,100736.84
2023-02-02T22:37:06.935Z,100736.00
2023-02-02T22:39:34.876Z,100748.56
2023-02-02T22:42:02.158Z,100734.34
2023-02-02T22:44:29.310Z,100736.59
2023-02-02T22:46:57.750Z,100756.59
2023-02-02T22:49:25.729Z,100749.91
2023-02-02T22:51:54.222Z,100755.91
2023-02-02T22:54:21.860Z,100760.19
2023-02-02T22:56:49.040Z,100768.47
2023-02-02T22:59:16.048Z,100737.63
2023-02-02T23:01:43.195Z,100760.69
2023-02-02T23:04:10.310Z,100767.13
2023-02-02T23:06:38.230Z,100772.91
2023-02-02T23:09:05.275Z,100733.06
2023-02-02T23:11:32.479Z,100761.53
2023-02-02T23:13:59.688Z,100762.25
2023-02-02T23:16:26.787Z,100741.59
2023-02-02T23:18:54.178Z,100755.06
2023-02-02T23:21:21.604Z,100770.72
2023-02-02T23:23:50.061Z,100745.38
2023-02-02T23:26:17.335Z,100774.81
2023-02-02T23:28:44.567Z,100755.31
2023-02-02T23:31:11.799Z,100765.00
2023-02-02T23:33:39.872Z,100769.19
2023-02-02T23:36:07.836Z,100753.38
2023-02-02T23:38:34.937Z,100770.50
2023-02-02T23:41:02.034Z,100769.44
2023-02-02T23:43:29.097Z,100744.34
2023-02-02T23:45:56.182Z,100756.38
2023-02-02T23:48:23.730Z,100755.13
2023-02-02T23:50:51.045Z,100774.28
2023-02-02T23:53:18.675Z,100737.09
2023-02-02T23:55:46.202Z,100766.25
2023-02-02T23:58:14.147Z,100767.56
